Time;durP1;ratioP1;P1;durP2;ratioP2;P2;SDS_P1;SDS_P2;PMS_P1;PMS_P2;Temp;Humidity;BMP_temperature;BMP_pressure;BME280_temperature;BME280_humidity;BME280_pressure;Samples;Min_cycle;Max_cycle;Signal;HPM_P1;HPM_P2
2021/05/23 00:01:00;;;;;;;17.35;4.30;;;12.80;94.80;;;;;;5084053;28;20502;-75
2021/05/23 00:03:28;;;;;;;18.73;4.25;;;12.80;95.00;;;;;;5081656;28;20509;-74
2021/05/23 00:05:54;;;;;;;15.40;4.07;;;12.80;94.90;;;;;;5065171;28;20429;-75
2021/05/23 00:08:22;;;;;;;15.20;3.80;;;12.80;94.90;;;;;;5098880;28;20786;-75
2021/05/23 00:10:50;;;;;;;21.58;4.40;;;12.70;94.70;;;;;;5065596;28;20824;-75
2021/05/23 00:13:19;;;;;;;17.87;4.20;;;12.70;94.70;;;;;;5079070;28;20432;-76
2021/05/23 00:15:52;;;;;;;16.63;4.28;;;12.70;94.80;;;;;;5081894;28;22771;-75
2021/05/23 00:18:20;;;;;;;20.02;4.22;;;12.70;94.90;;;;;;5083771;28;20897;-75
2021/05/23 00:20:47;;;;;;;18.30;4.55;;;12.70;95.00;;;;;;5066100;28;20418;-75
2021/05/23 00:23:14;;;;;;;16.17;4.47;;;12.70;95.10;;;;;;5099017;28;20771;-74
2021/05/23 00:25:41;;;;;;;18.17;4.60;;;12.80;95.10;;;;;;5083259;28;20421;-75
2021/05/23 00:28:09;;;;;;;16.65;4.10;;;12.80;95.00;;;;;;5083884;28;20426;-76
2021/05/23 00:30:36;;;;;;;14.83;4.30;;;12.80;95.10;;;;;;5084593;28;20440;-74
2021/05/23 00:33:05;;;;;;;16.23;4.10;;;12.80;95.00;;;;;;5085439;28;20423;-75
2021/05/23 00:35:31;;;;;;;15.80;4.57;;;12.80;95.10;;;;;;5087517;28;20413;-75
2021/05/23 00:37:59;;;;;;;16.88;4.40;;;12.80;94.90;;;;;;5085021;28;22905;-75
2021/05/23 00:40:26;;;;;;;20.60;5.05;;;12.80;94.90;;;;;;5088534;28;20436;-73
2021/05/23 00:42:53;;;;;;;24.38;4.88;;;12.80;95.10;;;;;;5068270;28;20421;-75
2021/05/23 00:45:20;;;;;;;21.07;5.00;;;12.80;95.20;;;;;;5086656;28;20909;-75
2021/05/23 00:47:48;;;;;;;19.23;4.80;;;12.80;95.50;;;;;;5084413;28;20928;-76
2021/05/23 00:50:19;;;;;;;19.83;5.50;;;12.70;95.70;;;;;;5068247;28;20438;-75
2021/05/23 00:52:45;;;;;;;19.60;5.40;;;12.70;96.00;;;;;;5087075;28;20476;-75
2021/05/23 00:55:13;;;;;;;15.93;5.32;;;12.60;96.30;;;;;;5088532;28;20417;-75
2021/05/23 00:57:41;;;;;;;22.02;5.72;;;12.60;96.60;;;;;;5087467;28;20746;-74
2021/05/23 01:00:09;;;;;;;19.10;5.27;;;12.60;96.80;;;;;;5087118;28;20457;-74
2021/05/23 01:02:44;;;;;;;20.45;6.00;;;12.60;97.00;;;;;;5065970;28;20421;-75
2021/05/23 01:05:13;;;;;;;21.77;5.80;;;12.60;97.50;;;;;;5086300;28;20430;-75
2021/05/23 01:07:41;;;;;;;19.87;6.10;;;12.60;97.30;;;;;;5084618;28;20902;-75
2021/05/23 01:10:10;;;;;;;22.20;6.20;;;12.50;97.50;;;;;;5070262;28;20428;-74
2021/05/23 01:13:31;;;;;;;22.70;5.93;;;12.50;97.60;;;;;;5084321;28;20425;-75
2021/05/23 01:15:59;;;;;;;22.45;5.88;;;12.50;97.70;;;;;;5067019;28;20433;-77
2021/05/23 01:18:38;;;;;;;22.17;6.25;;;12.60;97.80;;;;;;5084895;28;20793;-76
2021/05/23 01:21:08;;;;;;;17.15;5.65;;;12.60;97.80;;;;;;5085737;28;20920;-74
2021/05/23 01:23:41;;;;;;;20.52;5.88;;;12.60;97.80;;;;;;5085208;28;20429;-73
2021/05/23 01:26:11;;;;;;;18.43;5.53;;;12.60;97.80;;;;;;5082014;28;20417;-74
2021/05/23 01:28:41;;;;;;;22.90;5.75;;;12.60;97.80;;;;;;5096467;28;20483;-75
2021/05/23 01:31:12;;;;;;;21.63;5.90;;;12.60;98.20;;;;;;5084132;28;20421;-77
2021/05/23 01:33:39;;;;;;;23.25;5.80;;;12.60;98.20;;;;;;5084238;28;20789;-76
2021/05/23 01:36:07;;;;;;;20.67;5.78;;;12.60;97.80;;;;;;5088812;28;20429;-77
2021/05/23 01:38:35;;;;;;;21.38;5.93;;;12.60;97.70;;;;;;5081946;28;20457;-76
2021/05/23 01:41:05;;;;;;;22.63;5.93;;;12.60;97.80;;;;;;5070281;28;20930;-76
2021/05/23 01:43:34;;;;;;;25.25;6.30;;;12.60;97.90;;;;;;5085017;28;20437;-74
2021/05/23 01:46:01;;;;;;;20.98;5.65;;;12.60;98.00;;;;;;5098918;28;20455;-75
2021/05/23 01:48:28;;;;;;;21.20;5.55;;;12.60;97.90;;;;;;5085472;28;20530;-74
2021/05/23 01:50:54;;;;;;;21.83;6.40;;;12.60;98.10;;;;;;5086340;28;20429;-74
2021/05/23 01:53:21;;;;;;;22.23;6.75;;;12.60;98.30;;;;;;5086301;28;20422;-75
2021/05/23 01:55:48;;;;;;;18.53;6.33;;;12.50;98.50;;;;;;5086503;28;20516;-74
2021/05/23 01:58:15;;;;;;;24.42;6.90;;;12.50;98.60;;;;;;5084669;28;20483;-75
2021/05/23 02:00:45;;;;;;;25.17;7.13;;;12.50;98.80;;;;;;5084080;28;20925;-75
2021/05/23 02:03:16;;;;;;;18.92;6.85;;;12.50;98.80;;;;;;5084257;28;20979;-74
2021/05/23 02:05:45;;;;;;;20.70;7.25;;;12.50;98.80;;;;;;5082969;28;20471;-74
2021/05/23 02:08:13;;;;;;;20.92;7.80;;;12.50;98.80;;;;;;5063655;28;20621;-75
2021/05/23 02:10:40;;;;;;;26.77;7.90;;;12.50;98.90;;;;;;5084504;28;20479;-75
2021/05/23 02:13:08;;;;;;;29.08;7.63;;;12.50;98.80;;;;;;5083956;28;20430;-75
2021/05/23 02:15:35;;;;;;;23.00;7.28;;;12.50;99.00;;;;;;5087657;28;20429;-76
2021/05/23 02:18:03;;;;;;;23.67;7.47;;;12.50;99.10;;;;;;5083384;28;20425;-75
2021/05/23 02:20:31;;;;;;;21.67;7.13;;;12.50;99.20;;;;;;5084787;28;20425;-75
2021/05/23 02:23:03;;;;;;;25.20;7.35;;;12.50;99.30;;;;;;5065169;28;20438;-76
2021/05/23 02:25:32;;;;;;;27.33;7.25;;;12.50;99.40;;;;;;5068022;28;20515;-73
2021/05/23 02:28:01;;;;;;;26.42;7.40;;;12.50;99.50;;;;;;5068059;28;20483;-75
2021/05/23 02:30:30;;;;;;;25.38;6.72;;;12.50;99.60;;;;;;5098344;28;20438;-75
2021/05/23 02:32:58;;;;;;;22.50;7.40;;;12.50;99.80;;;;;;5084606;28;20426;-75
2021/05/23 02:35:28;;;;;;;25.42;7.93;;;12.50;99.90;;;;;;5104100;28;20529;-74
2021/05/23 02:37:55;;;;;;;21.42;6.80;;;12.50;99.90;;;;;;5067068;28;20950;-75
2021/05/23 02:40:23;;;;;;;22.50;7.40;;;12.50;99.90;;;;;;5083096;28;20976;-75
2021/05/23 02:42:51;;;;;;;23.10;6.60;;;12.50;99.90;;;;;;5082674;28;21157;-75
2021/05/23 02:45:18;;;;;;;23.70;6.70;;;12.50;99.90;;;;;;5065367;28;21024;-75
2021/05/23 02:47:46;;;;;;;20.42;6.75;;;12.50;99.90;;;;;;5082192;28;20920;-75
2021/05/23 02:50:15;;;;;;;24.90;7.18;;;12.50;99.90;;;;;;5085710;28;20428;-75
2021/05/23 02:52:43;;;;;;;20.98;7.05;;;12.50;99.90;;;;;;5084150;28;20521;-75
2021/05/23 02:55:12;;;;;;;24.38;7.15;;;12.50;99.90;;;;;;5085216;28;20422;-77
2021/05/23 02:57:40;;;;;;;26.92;7.72;;;12.50;99.90;;;;;;5083446;28;20431;-75
2021/05/23 03:00:09;;;;;;;20.83;7.32;;;12.50;99.90;;;;;;5084798;28;20429;-75
2021/05/23 03:02:36;;;;;;;22.13;7.00;;;12.50;99.90;;;;;;5082079;28;20427;-75
2021/05/23 03:05:04;;;;;;;29.77;7.82;;;12.50;99.90;;;;;;5086552;28;20820;-75
2021/05/23 03:07:33;;;;;;;19.73;7.53;;;12.50;99.90;;;;;;5079837;28;20781;-76
2021/05/23 03:10:05;;;;;;;21.88;7.80;;;12.50;99.90;;;;;;5085302;28;20486;-76
2021/05/23 03:12:32;;;;;;;22.30;7.43;;;12.50;99.90;;;;;;5067675;28;20483;-75
2021/05/23 03:14:59;;;;;;;25.52;8.18;;;12.50;99.90;;;;;;5083854;28;20528;-75
2021/05/23 03:17:25;;;;;;;22.10;8.65;;;12.60;99.90;;;;;;5080956;28;20483;-75
2021/05/23 03:19:52;;;;;;;23.45;8.57;;;12.60;99.90;;;;;;5083422;28;20444;-76
2021/05/23 03:22:19;;;;;;;25.02;9.20;;;12.60;99.90;;;;;;5065299;28;20904;-74
2021/05/23 03:24:45;;;;;;;20.58;7.85;;;12.60;99.90;;;;;;5082389;28;20773;-74
2021/05/23 03:27:13;;;;;;;24.30;9.45;;;12.60;99.90;;;;;;5083602;28;20427;-74
2021/05/23 03:29:39;;;;;;;26.13;8.85;;;12.60;99.90;;;;;;5098992;28;20418;-75
2021/05/23 03:32:06;;;;;;;26.03;9.50;;;12.60;99.90;;;;;;5069236;28;20421;-74
2021/05/23 03:34:33;;;;;;;28.40;10.40;;;12.60;99.90;;;;;;5085628;28;20501;-74
2021/05/23 03:36:59;;;;;;;22.27;9.50;;;12.60;99.90;;;;;;5080247;28;20643;-74
2021/05/23 03:39:28;;;;;;;20.65;9.73;;;12.60;99.90;;;;;;5066777;28;20428;-75
2021/05/23 03:41:55;;;;;;;26.07;9.30;;;12.60;99.90;;;;;;5080634;28;20453;-74
2021/05/23 03:44:22;;;;;;;20.45;9.13;;;12.70;99.90;;;;;;5087286;28;20444;-74
2021/05/23 03:46:49;;;;;;;23.15;9.90;;;12.60;99.90;;;;;;5077480;28;20432;-75
2021/05/23 03:49:16;;;;;;;22.02;9.75;;;12.60;99.90;;;;;;5082894;28;20457;-75
2021/05/23 03:51:44;;;;;;;21.77;9.27;;;12.60;99.90;;;;;;5083281;28;20421;-77
2021/05/23 03:54:10;;;;;;;24.63;9.00;;;12.60;99.90;;;;;;5082836;28;20429;-75
2021/05/23 03:56:37;;;;;;;25.75;9.68;;;12.70;99.90;;;;;;5084718;28;20457;-75
2021/05/23 03:59:04;;;;;;;23.90;9.23;;;12.70;99.90;;;;;;5083507;28;20496;-76
2021/05/23 04:01:31;;;;;;;26.73;9.65;;;12.70;99.90;;;;;;5084592;28;20426;-74
2021/05/23 04:04:00;;;;;;;26.40;9.90;;;12.70;99.90;;;;;;5083894;28;20832;-75
2021/05/23 04:06:27;;;;;;;23.42;10.40;;;12.70;99.90;;;;;;5066724;28;20467;-74
2021/05/23 04:08:54;;;;;;;27.00;11.30;;;12.70;99.90;;;;;;5068169;28;20425;-75
2021/05/23 04:11:24;;;;;;;31.67;11.90;;;12.70;99.90;;;;;;5097343;28;20738;-76
2021/05/23 04:13:51;;;;;;;30.13;12.43;;;12.70;99.90;;;;;;5100365;28;20470;-75
2021/05/23 04:16:18;;;;;;;25.20;13.43;;;12.70;99.90;;;;;;5081647;28;20429;-75
2021/05/23 04:18:46;;;;;;;26.52;14.02;;;12.70;99.90;;;;;;5067348;28;20471;-75
2021/05/23 04:21:13;;;;;;;31.90;16.00;;;12.80;99.90;;;;;;5080758;28;20440;-74
2021/05/23 04:23:40;;;;;;;32.35;16.77;;;12.70;99.90;;;;;;5082695;28;20427;-75
2021/05/23 04:26:07;;;;;;;32.40;17.00;;;12.70;99.90;;;;;;5082467;28;20421;-75
2021/05/23 04:28:34;;;;;;;32.55;18.25;;;12.80;99.90;;;;;;5082114;28;20438;-75
2021/05/23 04:31:01;;;;;;;38.20;19.30;;;12.80;99.90;;;;;;5084836;28;20427;-75
2021/05/23 04:33:28;;;;;;;33.63;18.88;;;12.80;99.90;;;;;;5082802;28;20429;-75
2021/05/23 04:35:55;;;;;;;35.07;19.77;;;12.80;99.90;;;;;;5084318;28;20444;-75
2021/05/23 04:38:22;;;;;;;35.53;21.27;;;12.80;99.90;;;;;;5084460;28;20463;-76
2021/05/23 04:40:50;;;;;;;37.95;22.27;;;12.90;99.90;;;;;;5066279;28;20459;-75
2021/05/23 04:43:16;;;;;;;37.75;22.30;;;12.90;99.90;;;;;;5065955;28;20418;-75
2021/05/23 04:45:43;;;;;;;39.58;24.73;;;12.90;99.90;;;;;;5066266;28;20869;-75
2021/05/23 04:48:10;;;;;;;41.75;25.52;;;12.90;99.90;;;;;;5083778;28;20435;-75
2021/05/23 04:50:37;;;;;;;40.83;26.10;;;12.90;99.90;;;;;;5085017;28;20500;-75
2021/05/23 04:53:05;;;;;;;40.28;25.38;;;12.90;99.90;;;;;;5083879;28;20414;-74
2021/05/23 04:55:34;;;;;;;37.80;25.38;;;12.90;99.90;;;;;;5085121;28;20421;-75
2021/05/23 04:58:00;;;;;;;40.73;26.20;;;12.90;99.90;;;;;;5083541;28;20518;-76
2021/05/23 05:00:27;;;;;;;39.67;25.70;;;12.90;99.90;;;;;;5067046;28;20422;-76
2021/05/23 05:02:53;;;;;;;37.85;24.67;;;12.90;99.90;;;;;;5064846;28;20444;-74
2021/05/23 05:05:20;;;;;;;39.60;24.95;;;12.90;99.90;;;;;;5084643;28;20924;-75
2021/05/23 05:07:46;;;;;;;33.25;23.58;;;12.90;99.90;;;;;;5080991;28;20425;-73
2021/05/23 05:10:14;;;;;;;39.63;25.10;;;12.90;99.90;;;;;;5064272;28;20936;-74
2021/05/23 05:12:41;;;;;;;41.55;24.73;;;12.90;99.90;;;;;;5078600;28;20414;-74
2021/05/23 05:15:09;;;;;;;42.47;26.58;;;12.90;99.90;;;;;;5081500;28;20434;-73
2021/05/23 05:17:36;;;;;;;42.78;26.73;;;12.80;99.90;;;;;;5081362;28;20440;-75
2021/05/23 05:20:03;;;;;;;38.75;25.88;;;12.80;99.90;;;;;;5085532;28;20485;-75
2021/05/23 05:22:29;;;;;;;42.85;26.73;;;12.80;99.90;;;;;;5084782;28;20785;-74
2021/05/23 05:24:56;;;;;;;39.50;26.08;;;12.80;99.90;;;;;;5084061;28;20413;-75
2021/05/23 05:27:25;;;;;;;39.20;26.13;;;12.80;99.90;;;;;;5081892;28;20422;-73
2021/05/23 05:29:52;;;;;;;41.63;27.15;;;12.80;99.90;;;;;;5084764;28;20901;-73
2021/05/23 05:32:18;;;;;;;42.17;26.15;;;12.80;99.90;;;;;;5082924;28;20417;-74
2021/05/23 05:34:44;;;;;;;38.08;25.88;;;12.80;99.90;;;;;;5088461;28;20895;-75
2021/05/23 05:37:11;;;;;;;40.75;26.00;;;12.80;99.90;;;;;;5085348;28;20424;-75
2021/05/23 05:39:37;;;;;;;38.03;25.00;;;12.80;99.90;;;;;;5087566;28;20481;-75
2021/05/23 05:42:05;;;;;;;39.38;25.52;;;12.80;99.90;;;;;;5085723;28;20465;-74
2021/05/23 05:44:32;;;;;;;35.95;25.15;;;12.80;99.90;;;;;;5083445;28;20442;-75
2021/05/23 05:46:59;;;;;;;34.80;24.27;;;12.80;99.90;;;;;;5084314;28;20420;-75
2021/05/23 05:49:25;;;;;;;32.70;23.95;;;12.80;99.90;;;;;;5083617;28;20423;-74
2021/05/23 05:51:51;;;;;;;32.50;23.98;;;12.80;99.90;;;;;;5087198;28;20479;-74
2021/05/23 05:54:18;;;;;;;34.65;23.95;;;12.80;99.90;;;;;;5081917;28;20507;-72
2021/05/23 05:56:44;;;;;;;31.10;22.63;;;12.80;99.90;;;;;;5083094;28;20425;-72
2021/05/23 05:59:11;;;;;;;29.08;21.55;;;12.80;99.90;;;;;;5077967;28;20503;-73
2021/05/23 06:01:38;;;;;;;28.95;22.13;;;12.80;99.90;;;;;;5082144;28;20422;-75
2021/05/23 06:04:05;;;;;;;30.60;21.75;;;12.80;99.90;;;;;;5062165;28;20422;-73
2021/05/23 06:06:31;;;;;;;30.65;22.23;;;12.80;99.90;;;;;;5080133;28;20433;-74
2021/05/23 06:08:58;;;;;;;29.10;21.52;;;12.80;99.90;;;;;;5083834;28;21004;-75
2021/05/23 06:11:24;;;;;;;28.67;21.17;;;12.80;99.90;;;;;;5096238;28;20456;-74
2021/05/23 06:13:50;;;;;;;27.42;21.20;;;12.80;99.90;;;;;;5082628;28;20436;-74
2021/05/23 06:16:17;;;;;;;27.00;21.25;;;12.80;99.90;;;;;;5062187;28;20525;-74
2021/05/23 06:18:45;;;;;;;27.98;20.60;;;12.90;99.90;;;;;;5083405;28;20772;-73
2021/05/23 06:21:12;;;;;;;26.93;20.93;;;12.90;99.90;;;;;;5095779;28;20993;-74
2021/05/23 06:23:38;;;;;;;24.95;19.60;;;12.90;99.90;;;;;;5082257;28;20429;-73
2021/05/23 06:26:05;;;;;;;24.55;19.10;;;13.00;99.90;;;;;;5081234;28;20494;-73
2021/05/23 06:28:32;;;;;;;25.00;18.08;;;13.00;99.90;;;;;;5080422;28;20425;-72
2021/05/23 06:30:58;;;;;;;22.70;17.70;;;13.00;99.90;;;;;;5080543;28;21101;-72
2021/05/23 06:33:24;;;;;;;21.92;17.23;;;13.10;99.90;;;;;;5080040;28;20760;-73
2021/05/23 06:35:52;;;;;;;22.13;17.55;;;13.10;99.90;;;;;;5083919;28;20480;-73
2021/05/23 06:38:18;;;;;;;19.38;15.40;;;13.20;99.90;;;;;;5084966;28;20430;-74
2021/05/23 06:40:44;;;;;;;20.40;15.07;;;13.20;99.90;;;;;;5085094;28;21047;-73
2021/05/23 06:43:11;;;;;;;11.50;8.67;;;13.20;99.90;;;;;;5084997;28;20453;-75
2021/05/23 06:45:37;;;;;;;9.77;6.28;;;13.30;99.90;;;;;;5085310;28;20440;-73
2021/05/23 06:48:04;;;;;;;8.27;4.75;;;13.30;99.90;;;;;;5080610;28;20417;-75
2021/05/23 06:50:31;;;;;;;4.63;2.20;;;13.30;99.90;;;;;;5067850;28;20409;-73
2021/05/23 06:52:58;;;;;;;4.38;1.60;;;13.30;99.90;;;;;;5081035;28;20438;-73
2021/05/23 06:55:24;;;;;;;5.78;1.80;;;13.30;99.90;;;;;;5084706;28;20483;-73
2021/05/23 06:57:51;;;;;;;3.55;1.70;;;13.40;99.90;;;;;;5082825;28;20429;-75
2021/05/23 07:00:19;;;;;;;5.57;1.70;;;13.40;99.90;;;;;;5085582;28;20433;-73
2021/05/23 07:02:45;;;;;;;4.45;1.75;;;13.50;99.90;;;;;;5079463;28;20584;-72
2021/05/23 07:05:12;;;;;;;4.30;1.88;;;13.50;99.90;;;;;;5065796;28;20449;-74
2021/05/23 07:07:38;;;;;;;3.72;1.80;;;13.60;99.90;;;;;;5081624;28;20429;-75
2021/05/23 07:10:07;;;;;;;5.28;1.70;;;13.70;99.90;;;;;;5081573;28;21229;-75
2021/05/23 07:12:34;;;;;;;5.53;2.13;;;13.70;99.90;;;;;;5063038;28;20410;-74
2021/05/23 07:15:00;;;;;;;5.32;2.08;;;13.80;99.90;;;;;;5084951;28;20781;-74
2021/05/23 07:17:27;;;;;;;6.32;1.92;;;13.80;99.90;;;;;;5083990;28;20482;-75
2021/05/23 07:19:53;;;;;;;6.25;1.90;;;13.80;99.90;;;;;;5085113;28;20921;-75
2021/05/23 07:22:21;;;;;;;6.68;2.00;;;13.80;99.90;;;;;;5083667;28;20455;-74
2021/05/23 07:24:47;;;;;;;4.93;2.20;;;13.90;99.90;;;;;;5079141;28;20433;-76
2021/05/23 07:27:14;;;;;;;7.38;2.22;;;13.80;99.90;;;;;;5064087;28;20432;-74
2021/05/23 07:29:41;;;;;;;5.55;2.10;;;13.90;99.90;;;;;;5066545;28;20421;-74
2021/05/23 07:32:07;;;;;;;6.90;2.47;;;13.90;99.90;;;;;;5082263;28;20467;-75
2021/05/23 07:34:33;;;;;;;8.88;2.80;;;13.90;99.90;;;;;;5065623;28;20472;-74
2021/05/23 07:37:00;;;;;;;4.45;2.25;;;13.90;99.90;;;;;;5084112;28;20436;-74
2021/05/23 07:39:27;;;;;;;6.10;2.40;;;13.90;99.90;;;;;;5059195;28;20425;-75
2021/05/23 07:41:53;;;;;;;5.07;2.28;;;13.90;99.90;;;;;;5063437;28;20465;-74
2021/05/23 07:44:21;;;;;;;5.47;2.25;;;14.00;99.90;;;;;;5057316;28;20440;-75
2021/05/23 07:46:47;;;;;;;5.85;2.80;;;14.00;99.90;;;;;;5059037;28;20906;-74
2021/05/23 07:49:13;;;;;;;5.90;2.50;;;14.00;99.90;;;;;;5064480;28;20420;-74
2021/05/23 07:51:40;;;;;;;4.88;1.88;;;14.10;99.90;;;;;;5064824;28;20429;-74
2021/05/23 07:54:06;;;;;;;4.70;1.90;;;14.10;99.40;;;;;;5064996;28;20452;-75
2021/05/23 07:56:33;;;;;;;4.68;2.13;;;14.00;98.70;;;;;;5062977;28;20506;-75
2021/05/23 07:58:59;;;;;;;5.43;2.57;;;14.00;98.50;;;;;;5064636;28;20464;-74
2021/05/23 08:01:26;;;;;;;5.18;2.80;;;14.00;98.70;;;;;;5059579;28;20445;-74
2021/05/23 08:03:53;;;;;;;6.70;2.90;;;14.00;99.10;;;;;;5064340;28;20420;-74
2021/05/23 08:06:19;;;;;;;7.35;2.85;;;14.10;99.10;;;;;;5059483;28;20432;-74
2021/05/23 08:08:46;;;;;;;4.93;2.60;;;14.10;99.50;;;;;;5062845;28;22328;-74
2021/05/23 08:11:12;;;;;;;6.13;2.60;;;14.20;99.40;;;;;;5063132;28;20414;-74
2021/05/23 08:13:39;;;;;;;5.47;2.30;;;14.20;99.40;;;;;;5060972;28;20419;-73
2021/05/23 08:16:07;;;;;;;4.50;2.50;;;14.20;98.00;;;;;;5062434;28;20438;-74
2021/05/23 08:18:35;;;;;;;5.93;2.50;;;14.30;97.60;;;;;;5061039;28;20431;-75
2021/05/23 08:21:03;;;;;;;5.68;2.40;;;14.30;97.10;;;;;;5063938;28;20440;-74
2021/05/23 08:23:30;;;;;;;4.53;2.50;;;14.30;97.00;;;;;;5062234;28;20431;-76
2021/05/23 08:25:58;;;;;;;6.90;3.03;;;14.30;97.10;;;;;;5060849;28;20486;-74
2021/05/23 08:28:25;;;;;;;5.80;2.60;;;14.40;96.80;;;;;;5062207;28;20430;-75
2021/05/23 08:30:52;;;;;;;5.80;2.47;;;14.40;96.20;;;;;;5060549;28;20433;-73
2021/05/23 08:33:18;;;;;;;5.60;3.10;;;14.40;95.50;;;;;;5063727;28;20419;-74
2021/05/23 08:35:45;;;;;;;5.25;2.90;;;14.50;95.10;;;;;;5077569;28;21047;-74
2021/05/23 08:38:12;;;;;;;6.57;3.28;;;14.40;95.40;;;;;;5062698;28;20419;-74
2021/05/23 08:40:38;;;;;;;6.28;3.45;;;14.40;96.00;;;;;;5074463;28;20445;-74
2021/05/23 08:43:08;;;;;;;6.18;3.80;;;14.40;95.60;;;;;;5082199;28;20512;-74
2021/05/23 08:45:34;;;;;;;6.50;3.92;;;14.50;95.70;;;;;;5082423;28;20429;-74
2021/05/23 08:48:01;;;;;;;8.52;3.80;;;14.50;96.40;;;;;;5081064;28;20832;-74
2021/05/23 08:50:27;;;;;;;8.38;4.15;;;14.50;96.70;;;;;;5082014;28;20425;-74
2021/05/23 08:52:56;;;;;;;6.67;4.23;;;14.60;96.60;;;;;;5079651;28;20460;-78
2021/05/23 08:55:23;;;;;;;7.75;4.43;;;14.60;96.30;;;;;;5082766;28;20432;-75
2021/05/23 08:57:50;;;;;;;6.20;4.50;;;14.60;96.40;;;;;;5082198;28;20955;-75
2021/05/23 09:00:18;;;;;;;9.18;5.40;;;14.60;96.60;;;;;;5084905;28;20418;-74
2021/05/23 09:02:55;;;;;;;10.95;5.47;;;14.70;96.50;;;;;;5080045;28;20440;-74
2021/05/23 09:05:34;;;;;;;8.07;5.43;;;14.70;96.20;;;;;;5066678;28;20430;-73
2021/05/23 09:08:03;;;;;;;10.03;5.50;;;14.70;96.60;;;;;;5079966;28;20428;-73
2021/05/23 09:10:31;;;;;;;8.30;5.75;;;14.70;96.30;;;;;;5085341;28;20430;-74
2021/05/23 09:12:58;;;;;;;10.25;5.88;;;14.70;95.90;;;;;;5081333;28;20423;-74
2021/05/23 09:15:28;;;;;;;9.10;6.17;;;14.60;95.70;;;;;;5087062;28;20978;-73
2021/05/23 09:18:06;;;;;;;9.18;5.80;;;14.60;95.90;;;;;;5099060;28;20414;-74
2021/05/23 09:20:35;;;;;;;7.87;4.97;;;14.60;95.60;;;;;;5086026;28;20426;-75
2021/05/23 09:23:08;;;;;;;8.95;3.20;;;14.70;95.20;;;;;;5080228;28;20940;-74
2021/05/23 09:25:37;;;;;;;4.97;2.00;;;14.60;94.50;;;;;;5081924;28;20509;-74
2021/05/23 09:28:05;;;;;;;8.68;1.80;;;14.50;93.90;;;;;;5084153;28;20478;-74
2021/05/23 09:30:33;;;;;;;3.83;1.77;;;14.40;95.60;;;;;;5067961;28;20486;-72
2021/05/23 09:33:00;;;;;;;5.90;2.10;;;14.10;96.70;;;;;;5069483;28;20947;-74
2021/05/23 09:35:29;;;;;;;5.47;1.75;;;13.80;97.90;;;;;;5081553;28;20221;-73
2021/05/23 09:37:59;;;;;;;;;;;13.30;98.30;;;;;;5082169;28;20284;-74
2021/05/23 09:40:30;;;;;;;8.65;1.90;;;12.90;98.90;;;;;;5080330;28;20414;-74
2021/05/23 09:42:57;;;;;;;5.03;2.13;;;12.60;99.50;;;;;;5081336;28;20431;-74
2021/05/23 09:45:25;;;;;;;6.65;2.17;;;12.60;99.90;;;;;;5087138;28;20414;-74
2021/05/23 09:47:53;;;;;;;;;;;12.60;99.90;;;;;;5081230;28;20783;-74
2021/05/23 09:50:31;;;;;;;;;;;12.70;99.90;;;;;;5086418;28;19927;-74
2021/05/23 09:52:57;;;;;;;;;;;12.80;99.90;;;;;;5089005;28;19961;-76
2021/05/23 09:55:25;;;;;;;;;;;12.60;99.90;;;;;;5087410;28;19979;-74
2021/05/23 09:57:52;;;;;;;;;;;12.40;99.90;;;;;;5088736;28;20021;-74
2021/05/23 10:00:19;;;;;;;;;;;12.40;99.90;;;;;;5087403;28;19969;-73
2021/05/23 10:02:52;;;;;;;;;;;12.30;99.90;;;;;;5088152;28;20181;-73
2021/05/23 10:05:18;;;;;;;;;;;12.20;99.90;;;;;;5085182;28;20910;-74
2021/05/23 10:07:44;;;;;;;;;;;12.20;99.90;;;;;;5100147;28;19957;-75
2021/05/23 10:10:12;;;;;;;9.57;2.75;;;12.10;99.90;;;;;;5084080;28;20404;-74
2021/05/23 10:12:38;;;;;;;13.18;3.33;;;12.00;99.90;;;;;;5084590;28;20248;-74
2021/05/23 10:15:10;;;;;;;10.50;4.18;;;11.90;99.90;;;;;;5084550;28;20210;-76
2021/05/23 10:17:37;;;;;;;14.00;4.10;;;11.90;99.90;;;;;;5086394;28;20217;-75
2021/05/23 10:20:07;;;;;;;12.25;4.03;;;11.80;99.90;;;;;;5083674;28;20212;-74
2021/05/23 10:22:35;;;;;;;14.30;3.58;;;11.80;99.90;;;;;;5070259;28;20228;-73
2021/05/23 10:25:05;;;;;;;11.98;3.92;;;11.80;99.90;;;;;;5085863;28;20198;-74
2021/05/23 10:27:36;;;;;;;12.90;3.85;;;11.80;99.90;;;;;;5084410;28;20645;-76
2021/05/23 10:30:06;;;;;;;15.00;3.53;;;11.80;99.90;;;;;;5086952;28;20263;-75
2021/05/23 10:32:37;;;;;;;12.23;3.78;;;11.80;99.90;;;;;;5085413;28;20222;-73
2021/05/23 10:35:16;;;;;;;12.40;3.25;;;11.80;99.90;;;;;;5082143;28;20210;-73
2021/05/23 10:37:44;;;;;;;13.30;3.40;;;11.90;99.90;;;;;;5082898;28;20194;-75
2021/05/23 10:40:20;;;;;;;15.48;4.30;;;12.00;99.90;;;;;;5083055;28;20245;-73
2021/05/23 10:42:52;;;;;;;11.60;3.60;;;12.10;99.90;;;;;;5097005;28;20230;-73
2021/05/23 10:45:26;;;;;;;9.23;3.00;;;12.20;99.90;;;;;;5081118;28;20718;-74
2021/05/23 10:47:55;;;;;;;14.98;3.60;;;12.30;99.90;;;;;;5065609;28;20199;-76
2021/05/23 10:50:33;;;;;;;11.00;3.53;;;12.40;99.90;;;;;;5067076;28;20216;-74
2021/05/23 10:53:00;;;;;;;7.85;3.15;;;12.40;99.90;;;;;;5086331;28;20280;-72
2021/05/23 10:55:27;;;;;;;8.30;3.00;;;12.50;99.90;;;;;;5085927;28;20299;-74
2021/05/23 10:57:56;;;;;;;11.38;3.40;;;12.50;99.90;;;;;;5081724;28;20202;-74
2021/05/23 11:00:26;;;;;;;9.70;3.33;;;12.60;99.90;;;;;;5086984;28;20216;-73
2021/05/23 11:02:54;;;;;;;16.25;3.78;;;12.70;99.90;;;;;;5088269;28;20588;-75
2021/05/23 11:05:23;;;;;;;10.95;3.22;;;12.80;99.90;;;;;;5089880;28;20280;-74
2021/05/23 11:07:57;;;;;;;13.00;3.65;;;12.90;99.90;;;;;;5089204;28;20217;-74
2021/05/23 11:10:25;;;;;;;12.93;3.90;;;12.90;99.90;;;;;;5089927;28;20209;-75
2021/05/23 11:12:54;;;;;;;10.32;3.67;;;13.00;99.90;;;;;;5087368;28;20202;-74
2021/05/23 11:15:21;;;;;;;13.95;3.60;;;13.00;99.90;;;;;;5088371;28;20247;-74
2021/05/23 11:17:52;;;;;;;9.43;3.80;;;13.00;99.90;;;;;;5089491;28;20212;-75
2021/05/23 11:20:22;;;;;;;11.98;3.92;;;12.90;99.90;;;;;;5089674;28;20204;-75
2021/05/23 11:22:56;;;;;;;12.13;3.50;;;12.90;99.90;;;;;;5088310;28;21054;-77
2021/05/23 11:25:22;;;;;;;11.73;3.80;;;12.90;99.90;;;;;;5087134;28;20657;-74
2021/05/23 11:28:00;;;;;;;10.40;3.17;;;12.90;99.90;;;;;;5089547;28;20735;-74
2021/05/23 11:30:29;;;;;;;6.70;2.50;;;12.90;99.90;;;;;;5087629;28;20710;-75
2021/05/23 11:33:00;;;;;;;7.25;2.00;;;13.00;99.30;;;;;;5089445;28;20198;-74
2021/05/23 11:35:28;;;;;;;8.93;2.30;;;13.00;97.90;;;;;;5088808;28;20281;-74
2021/05/23 11:37:56;;;;;;;7.50;2.05;;;13.10;97.40;;;;;;5089499;28;20198;-74
2021/05/23 11:40:23;;;;;;;4.63;2.00;;;13.10;96.90;;;;;;5087800;28;20312;-73
2021/05/23 11:42:50;;;;;;;11.27;1.88;;;13.20;96.70;;;;;;5088193;28;20292;-74
2021/05/23 11:45:21;;;;;;;8.27;1.70;;;13.20;96.30;;;;;;5089191;28;20276;-75
2021/05/23 11:47:51;;;;;;;4.00;1.40;;;13.40;96.20;;;;;;5089817;28;20263;-75
2021/05/23 11:50:25;;;;;;;9.20;1.80;;;13.40;95.40;;;;;;5086907;28;20673;-75
2021/05/23 11:52:57;;;;;;;3.97;1.67;;;13.40;93.80;;;;;;5083640;28;20669;-74
2021/05/23 11:55:25;;;;;;;7.80;1.45;;;13.50;93.60;;;;;;5087075;28;20205;-75
2021/05/23 11:58:02;;;;;;;6.20;2.00;;;13.50;92.70;;;;;;5084743;28;20200;-73
2021/05/23 12:00:29;;;;;;;7.25;1.50;;;13.60;92.60;;;;;;5088924;28;20220;-73
2021/05/23 12:02:56;;;;;;;6.82;1.40;;;13.60;91.80;;;;;;5071315;28;20221;-73
2021/05/23 12:05:35;;;;;;;12.32;1.60;;;13.60;91.50;;;;;;5088663;28;20229;-74
2021/05/23 12:08:03;;;;;;;5.13;1.27;;;13.70;91.10;;;;;;5069828;28;20205;-75
2021/05/23 12:10:30;;;;;;;5.97;1.50;;;13.70;90.40;;;;;;5082753;28;20220;-77
2021/05/23 12:12:57;;;;;;;6.38;1.70;;;13.80;90.00;;;;;;5095051;28;20220;-76
2021/05/23 12:15:23;;;;;;;3.35;1.20;;;13.90;89.20;;;;;;5084218;28;20206;-74
2021/05/23 12:17:54;;;;;;;8.82;1.40;;;13.90;87.40;;;;;;5082015;28;20607;-74
2021/05/23 12:20:21;;;;;;;3.85;1.30;;;14.00;85.80;;;;;;5079113;28;20210;-74
2021/05/23 12:22:51;;;;;;;4.70;1.20;;;14.00;85.30;;;;;;5087034;28;20304;-75
2021/05/23 12:25:20;;;;;;;5.43;1.10;;;14.00;84.00;;;;;;5069418;28;20280;-76
2021/05/23 12:27:49;;;;;;;4.13;1.30;;;14.00;83.40;;;;;;5089750;28;20205;-75
2021/05/23 12:30:18;;;;;;;5.57;1.40;;;14.00;83.50;;;;;;5074430;28;20255;-74
2021/05/23 12:32:52;;;;;;;7.43;1.30;;;14.00;83.60;;;;;;5071747;28;20194;-75
2021/05/23 12:35:21;;;;;;;4.00;1.15;;;14.10;83.40;;;;;;5073325;28;20302;-75
2021/05/23 12:37:52;;;;;;;5.75;1.40;;;14.20;82.80;;;;;;5105830;28;20220;-73
2021/05/23 12:40:26;;;;;;;7.57;1.42;;;14.20;81.50;;;;;;5092934;28;20610;-74
2021/05/23 12:42:53;;;;;;;5.57;1.30;;;14.20;81.10;;;;;;5106807;28;20229;-73
2021/05/23 12:45:20;;;;;;;6.32;1.30;;;14.20;80.60;;;;;;5092537;28;20225;-73